FlightSource - Aviation Photo Database

World Wide Airport Lookup


Search by ICAO
Or
Search by City

FlightSource.ca - Aviation Photo Database - McMinn County Airport Information
Airport Identification
Name: McMinn County Airport
ICAO: KMMI
IATA:
Airport Location
City: Athens
Region: TN
Country: United States
Continent: North America
Latitude: 35.3973
Longitude: -84.5626
Airport Information
Type: Small Airport
Elevation: 858 Feet ASL
Flight Status: KMMI
More Info: KMMI
Airport Weather    
Metar: KMMI 242355Z AUTO 00000KT 10SM CLR 07/03 A2994 RMK
TAF:


Advertisement